createdAt,value
2022-11-24T00:02:52.332Z,99427.09
2022-11-24T00:05:54.917Z,99427.44
2022-11-24T00:08:57.244Z,99420.63
2022-11-24T00:12:01.289Z,99423.34
2022-11-24T00:15:03.713Z,99424.19
2022-11-24T00:18:05.984Z,99427.53
2022-11-24T00:21:07.932Z,99428.69
2022-11-24T00:24:10.157Z,99431.00
2022-11-24T00:27:12.071Z,99433.09
2022-11-24T00:30:14.275Z,99434.59
2022-11-24T00:33:16.189Z,99434.88
2022-11-24T00:36:19.251Z,99447.81
2022-11-24T00:39:21.183Z,99446.03
2022-11-24T00:42:23.385Z,99446.53
2022-11-24T00:45:25.269Z,99454.84
2022-11-24T00:48:27.441Z,99460.75
2022-11-24T00:51:30.354Z,99465.84
2022-11-24T00:54:32.838Z,99461.59
2022-11-24T00:57:35.233Z,99465.84
2022-11-24T01:00:37.440Z,99470.31
2022-11-24T01:03:39.619Z,99466.72
2022-11-24T01:06:41.842Z,99469.31
2022-11-24T01:09:45.525Z,99469.47
2022-11-24T01:12:47.841Z,99467.03
2022-11-24T01:15:49.761Z,99474.06
2022-11-24T01:18:52.390Z,99471.53
2022-11-24T01:21:54.366Z,99469.31
2022-11-24T01:24:56.506Z,99475.59
2022-11-24T01:27:58.392Z,99476.44
2022-11-24T01:31:01.432Z,99477.72
2022-11-24T01:34:03.441Z,99478.28
2022-11-24T01:37:05.631Z,99465.66
2022-11-24T01:40:08.073Z,99477.63
2022-11-24T01:43:18.061Z,99476.06
2022-11-24T01:46:26.589Z,99475.75
2022-11-24T01:49:36.931Z,99483.94
2022-11-24T01:52:41.938Z,99483.28
2022-11-24T01:55:44.123Z,99478.78
2022-11-24T01:58:47.406Z,99484.88
2022-11-24T02:01:51.444Z,99481.41
2022-11-24T02:04:54.387Z,99486.56
2022-11-24T02:08:00.265Z,99480.38
2022-11-24T02:11:04.222Z,99477.84
2022-11-24T02:14:07.842Z,99479.84
2022-11-24T02:17:09.758Z,99480.38
2022-11-24T02:20:13.248Z,99484.66
2022-11-24T02:23:20.410Z,99484.38
2022-11-24T02:26:41.164Z,99482.34
2022-11-24T02:29:43.153Z,99478.28
2022-11-24T02:32:45.426Z,99481.94
2022-11-24T02:35:47.341Z,99487.84
2022-11-24T02:38:49.507Z,99492.13
2022-11-24T02:41:53.701Z,99490.22
2022-11-24T02:44:58.196Z,99489.81
2022-11-24T02:48:00.126Z,99489.19
2022-11-24T02:51:02.425Z,99493.50
2022-11-24T02:54:04.293Z,99488.34
2022-11-24T02:57:06.523Z,99488.34
2022-11-24T03:00:08.840Z,99491.81
2022-11-24T03:03:11.215Z,99490.22
2022-11-24T03:06:13.227Z,99492.00
2022-11-24T03:09:15.407Z,99495.22
2022-11-24T03:12:17.344Z,99501.06
2022-11-24T03:15:19.893Z,99500.72
2022-11-24T03:18:21.790Z,99502.59
2022-11-24T03:21:23.951Z,99503.72
2022-11-24T03:24:25.854Z,99514.22
2022-11-24T03:27:28.154Z,99520.31
2022-11-24T03:30:30.352Z,99515.06
2022-11-24T03:33:32.656Z,99514.69
2022-11-24T03:36:34.633Z,99525.31
2022-11-24T03:39:36.770Z,99521.00
2022-11-24T03:42:39.785Z,99524.16
2022-11-24T03:45:46.307Z,99521.63
2022-11-24T03:48:48.625Z,99527.72
2022-11-24T03:51:50.855Z,99510.91
2022-11-24T03:54:53.295Z,99522.44
2022-11-24T03:57:55.492Z,99521.19
2022-11-24T04:00:57.547Z,99525.16
2022-11-24T04:03:59.720Z,99529.53
2022-11-24T04:07:01.594Z,99532.38
2022-11-24T04:10:04.060Z,99529.75
2022-11-24T04:13:11.321Z,99529.37
2022-11-24T04:16:13.507Z,99530.41
2022-11-24T04:19:15.470Z,99533.69
2022-11-24T04:22:17.636Z,99535.37
2022-11-24T04:25:19.569Z,99540.50
2022-11-24T04:28:21.778Z,99546.88
2022-11-24T04:31:23.709Z,99550.81
2022-11-24T04:34:25.915Z,99553.44
2022-11-24T04:37:28.087Z,99554.75
2022-11-24T04:40:30.513Z,99563.19
2022-11-24T04:43:35.220Z,99564.31
2022-11-24T04:46:41.592Z,99567.78
2022-11-24T04:49:43.532Z,99579.28
2022-11-24T04:52:45.915Z,99584.44
2022-11-24T04:55:47.847Z,99576.38
2022-11-24T04:58:50.043Z,99583.69
2022-11-24T05:01:52.056Z,99590.72
2022-11-24T05:04:54.408Z,99592.50
2022-11-24T05:07:58.305Z,99595.19
2022-11-24T05:11:08.186Z,99605.69
2022-11-24T05:14:10.153Z,99605.03
2022-11-24T05:17:12.311Z,99615.53
2022-11-24T05:20:14.321Z,99616.38
2022-11-24T05:23:18.843Z,99618.81
2022-11-24T05:29:22.452Z,99621.91
2022-11-24T05:32:24.506Z,99621.81
2022-11-24T05:35:26.745Z,99626.78
2022-11-24T05:38:29.934Z,99628.56
2022-11-24T05:41:32.149Z,99621.84
2022-11-24T05:44:34.411Z,99634.19
2022-11-24T05:47:37.476Z,99629.88
2022-11-24T05:50:39.788Z,99639.44
2022-11-24T05:53:42.392Z,99650.22
2022-11-24T05:56:44.323Z,99651.06
2022-11-24T05:59:46.500Z,99644.22
2022-11-24T06:02:48.606Z,99642.44
2022-11-24T06:05:50.970Z,99641.31
2022-11-24T06:08:52.840Z,99653.69
2022-11-24T06:11:55.056Z,99646.38
2022-11-24T06:14:56.957Z,99652.47
2022-11-24T06:17:59.165Z,99640.56
2022-11-24T06:21:10.658Z,99635.28
2022-11-24T06:24:14.699Z,99646.25
2022-11-24T06:27:16.869Z,99659.00
2022-11-24T06:30:19.049Z,99657.69
2022-11-24T06:33:21.038Z,99678.69
2022-11-24T06:36:23.254Z,99677.94
2022-11-24T06:39:25.258Z,99677.19
2022-11-24T06:42:27.500Z,99680.75
2022-11-24T06:45:29.448Z,99692.28
2022-11-24T06:48:31.976Z,99696.13
2022-11-24T06:51:33.893Z,99695.28
2022-11-24T06:54:36.380Z,99696.69
2022-11-24T06:57:38.725Z,99711.13
2022-11-24T07:00:41.092Z,99714.78
2022-11-24T07:03:43.876Z,99726.87
2022-11-24T07:06:46.303Z,99724.44
2022-11-24T07:09:48.394Z,99732.13
2022-11-24T07:12:50.633Z,99732.13
2022-11-24T07:15:52.590Z,99741.41
2022-11-24T07:18:55.411Z,99740.59
2022-11-24T07:21:57.387Z,99746.41
2022-11-24T07:24:59.715Z,99750.72
2022-11-24T07:28:02.634Z,99753.06
2022-11-24T07:31:05.945Z,99756.97
2022-11-24T07:34:08.619Z,99757.44
2022-11-24T07:37:11.094Z,99756.78
2022-11-24T07:40:13.071Z,99762.41
2022-11-24T07:43:19.981Z,99764.00
2022-11-24T07:46:24.261Z,99753.75
2022-11-24T07:49:26.859Z,99756.94
2022-11-24T07:52:28.916Z,99774.16
2022-11-24T07:55:31.125Z,99769.47
2022-11-24T07:58:34.673Z,99774.44
2022-11-24T08:01:37.199Z,99767.38
2022-11-24T08:04:39.637Z,99782.88
2022-11-24T08:07:41.604Z,99775.97
2022-11-24T08:10:43.912Z,99774.94
2022-11-24T08:13:45.994Z,99777.09
2022-11-24T08:16:48.298Z,99781.50
2022-11-24T08:19:50.372Z,99771.81
2022-11-24T08:22:56.447Z,99774.59
2022-11-24T08:26:03.405Z,99784.69
2022-11-24T08:29:05.914Z,99798.84
2022-11-24T08:32:08.362Z,99793.88
2022-11-24T08:35:15.136Z,99799.03
2022-11-24T08:38:17.364Z,99803.53
2022-11-24T08:41:19.498Z,99801.03
2022-11-24T08:44:21.514Z,99812.28
2022-11-24T08:47:23.795Z,99821.53
2022-11-24T08:50:26.120Z,99817.94
2022-11-24T08:53:30.629Z,99811.22
2022-11-24T08:56:33.718Z,99816.25
2022-11-24T08:59:36.096Z,99828.31
2022-11-24T09:02:38.825Z,99823.53
2022-11-24T09:05:51.676Z,99830.63
2022-11-24T09:08:55.806Z,99827.13
2022-11-24T09:11:58.269Z,99828.34
2022-11-24T09:15:00.221Z,99826.37
2022-11-24T09:18:02.515Z,99835.03
2022-11-24T09:21:08.166Z,99829.50
2022-11-24T09:24:10.752Z,99838.59
2022-11-24T09:27:12.779Z,99829.97
2022-11-24T09:30:16.871Z,99834.66
2022-11-24T09:33:18.885Z,99831.44
2022-11-24T09:36:21.561Z,99839.56
2022-11-24T09:39:23.492Z,99838.25
2022-11-24T09:42:53.434Z,99844.28
2022-11-24T09:46:06.124Z,99842.31
2022-11-24T09:49:12.675Z,99840.50
2022-11-24T09:52:18.504Z,99841.44
2022-11-24T09:55:40.773Z,99841.87
2022-11-24T09:58:50.432Z,99829.53
2022-11-24T10:01:54.315Z,99836.47
2022-11-24T10:04:57.724Z,99839.44
2022-11-24T10:07:59.716Z,99833.97
2022-11-24T10:11:05.403Z,99842.41
2022-11-24T10:14:07.565Z,99840.25
2022-11-24T10:17:29.028Z,99839.25
2022-11-24T10:20:31.113Z,99842.88
2022-11-24T10:23:53.800Z,99840.25
2022-11-24T10:27:04.374Z,99835.09
2022-11-24T10:30:32.872Z,99843.03
2022-11-24T10:33:35.270Z,99837.62
2022-11-24T10:36:47.047Z,99843.31
2022-11-24T10:40:01.220Z,99853.38
2022-11-24T10:43:05.332Z,99853.72
2022-11-24T10:46:23.073Z,99852.34
2022-11-24T10:49:28.211Z,99852.62
2022-11-24T10:52:32.626Z,99854.13
2022-11-24T10:55:53.604Z,99867.50
2022-11-24T10:58:57.608Z,99870.34
2022-11-24T11:02:00.553Z,99868.97
2022-11-24T11:05:21.640Z,99874.44
2022-11-24T11:08:23.866Z,99876.03
2022-11-24T11:11:29.836Z,99878.69
2022-11-24T11:14:33.885Z,99888.59
2022-11-24T11:17:38.011Z,99873.94
2022-11-24T11:20:40.385Z,99888.59
2022-11-24T11:23:44.233Z,99886.91
2022-11-24T11:26:46.476Z,99894.22
2022-11-24T11:36:46.245Z,99893.34
2022-11-24T11:39:54.004Z,99897.97
2022-11-24T11:43:14.900Z,99894.22
2022-11-24T11:46:17.540Z,99899.44
2022-11-24T11:49:19.789Z,99900.66
2022-11-24T11:52:25.227Z,99901.28
2022-11-24T11:55:46.645Z,99901.41
2022-11-24T11:58:56.160Z,99896.47
2022-11-24T12:01:58.128Z,99899.91
2022-11-24T12:05:02.029Z,99896.63
2022-11-24T12:08:21.012Z,99899.63
2022-11-24T12:11:29.377Z,99894.78
2022-11-24T12:14:39.357Z,99885.59
2022-11-24T12:17:44.931Z,99893.75
2022-11-24T12:20:59.253Z,99883.31
2022-11-24T12:24:21.112Z,99891.59
2022-11-24T12:27:26.582Z,99887.66
2022-11-24T12:30:35.404Z,99896.38
2022-11-24T12:33:55.340Z,99891.91
2022-11-24T12:37:08.329Z,99891.44
2022-11-24T12:40:16.546Z,99890.84
2022-11-24T12:43:34.410Z,99900.03
2022-11-24T12:46:56.938Z,99897.72
2022-11-24T12:50:08.051Z,99913.53
2022-11-24T12:53:13.273Z,99904.91
2022-11-24T12:56:17.409Z,99910.53
2022-11-24T12:59:34.787Z,99922.13
2022-11-24T13:02:56.848Z,99925.28
2022-11-24T13:06:13.719Z,99919.50
2022-11-24T13:09:18.618Z,99918.22
2022-11-24T13:12:21.644Z,99925.37
2022-11-24T13:15:44.730Z,99927.16
2022-11-24T13:18:52.513Z,99941.72
2022-11-24T13:22:07.399Z,99935.28
2022-11-24T13:25:24.789Z,99937.38
2022-11-24T13:29:01.842Z,99938.22
2022-11-24T13:32:08.276Z,99934.97
2022-11-24T13:35:15.075Z,99938.03
2022-11-24T13:38:35.451Z,99945.97
2022-11-24T13:41:57.977Z,99941.59
2022-11-24T13:45:04.521Z,99956.91
2022-11-24T13:48:19.003Z,99953.75
2022-11-24T13:51:25.017Z,99950.56
2022-11-24T13:54:28.490Z,99949.41
2022-11-24T13:57:39.170Z,99956.06
2022-11-24T14:01:00.315Z,99964.09
2022-11-24T14:04:30.142Z,99961.16
2022-11-24T14:07:34.181Z,99962.41
2022-11-24T14:10:37.798Z,99978.25
2022-11-24T14:13:39.828Z,99973.19
2022-11-24T14:16:42.397Z,99973.91
2022-11-24T14:19:45.969Z,99986.44
2022-11-24T14:22:48.256Z,99995.63
2022-11-24T14:25:51.190Z,99986.88
2022-11-24T14:28:54.210Z,99990.53
2022-11-24T14:32:00.201Z,99985.97
2022-11-24T14:35:02.441Z,99991.78
2022-11-24T14:38:05.436Z,99987.53
2022-11-24T14:41:23.217Z,99993.75
2022-11-24T14:44:26.183Z,100009.38
2022-11-24T14:47:31.748Z,100010.94
2022-11-24T14:50:34.377Z,100009.44
2022-11-24T14:53:36.721Z,100020.28
2022-11-24T14:56:39.525Z,100022.81
2022-11-24T14:59:41.756Z,100037.22
2022-11-24T15:03:06.948Z,100033.50
2022-11-24T15:06:15.623Z,100043.47
2022-11-24T15:09:19.977Z,100048.69
2022-11-24T15:12:28.772Z,100057.81
2022-11-24T15:15:36.232Z,100049.91
2022-11-24T15:18:43.115Z,100053.81
2022-11-24T15:21:45.094Z,100062.19
2022-11-24T15:24:53.358Z,100057.84
2022-11-24T15:27:55.243Z,100060.78
2022-11-24T15:31:05.415Z,100062.94
2022-11-24T15:34:07.628Z,100068.75
2022-11-24T15:37:09.840Z,100061.72
2022-11-24T15:40:12.073Z,100065.00
2022-11-24T15:43:23.399Z,100073.63
2022-11-24T15:46:29.168Z,100077.66
2022-11-24T15:49:31.395Z,100074.72
2022-11-24T15:52:34.648Z,100075.09
2022-11-24T15:55:37.022Z,100083.97
2022-11-24T15:58:38.906Z,100079.47
2022-11-24T16:01:42.633Z,100086.12
2022-11-24T16:04:45.711Z,100097.22
2022-11-24T16:07:50.043Z,100092.16
2022-11-24T16:10:52.593Z,100099.84
2022-11-24T16:13:54.749Z,100094.56
2022-11-24T16:16:57.125Z,100100.03
2022-11-24T16:20:00.731Z,100098.06
2022-11-24T16:23:04.850Z,100097.09
2022-11-24T16:26:06.981Z,100100.41
2022-11-24T16:29:11.583Z,100109.47
2022-11-24T16:32:13.526Z,100099.81
2022-11-24T16:35:16.003Z,100104.22
2022-11-24T16:38:20.729Z,100104.56
2022-11-24T16:41:22.940Z,100111.25
2022-11-24T16:44:24.965Z,100103.97
2022-11-24T16:47:27.333Z,100102.84
2022-11-24T16:50:29.261Z,100109.47
2022-11-24T16:53:31.505Z,100120.81
2022-11-24T16:56:33.476Z,100119.25
2022-11-24T16:59:35.682Z,100101.69
2022-11-24T17:02:38.700Z,100119.53
2022-11-24T17:05:41.059Z,100113.38
2022-11-24T17:08:43.384Z,100121.34
2022-11-24T17:11:45.628Z,100123.72
2022-11-24T17:15:09.307Z,100128.13
2022-11-24T17:18:24.049Z,100133.56
2022-11-24T17:21:28.152Z,100133.97
2022-11-24T17:24:32.460Z,100140.00
2022-11-24T17:27:34.533Z,100147.72
2022-11-24T17:30:38.178Z,100145.69
2022-11-24T17:33:40.100Z,100149.09
2022-11-24T17:36:44.713Z,100152.72
2022-11-24T17:40:05.718Z,100157.72
2022-11-24T17:43:09.000Z,100161.09
2022-11-24T17:46:11.007Z,100166.00
2022-11-24T17:49:14.373Z,100159.75
2022-11-24T17:52:17.885Z,100171.34
2022-11-24T17:55:20.085Z,100177.00
2022-11-24T17:58:21.966Z,100185.91
2022-11-24T18:01:25.910Z,100175.75
2022-11-24T18:04:28.324Z,100192.16
2022-11-24T18:07:30.340Z,100202.38
2022-11-24T18:10:33.041Z,100198.66
2022-11-24T18:13:55.635Z,100198.12
2022-11-24T18:16:57.287Z,100200.69
2022-11-24T18:19:59.248Z,100196.87
2022-11-24T18:23:06.133Z,100205.00
2022-11-24T18:26:11.053Z,100216.84
2022-11-24T18:29:13.351Z,100217.13
2022-11-24T18:32:15.510Z,100215.50
2022-11-24T18:35:17.929Z,100223.72
2022-11-24T18:38:19.965Z,100219.47
2022-11-24T18:41:22.441Z,100231.66
2022-11-24T18:44:25.858Z,100227.50
2022-11-24T18:47:28.093Z,100224.03
2022-11-24T18:50:30.037Z,100221.66
2022-11-24T18:53:32.266Z,100228.88
2022-11-24T18:56:34.294Z,100224.47
2022-11-24T18:59:37.015Z,100223.03
2022-11-24T19:02:39.099Z,100227.63
2022-11-24T19:05:41.801Z,100225.56
2022-11-24T19:08:43.899Z,100231.09
2022-11-24T19:11:46.701Z,100238.44
2022-11-24T19:14:48.688Z,100240.63
2022-11-24T19:17:51.835Z,100240.97
2022-11-24T19:20:55.781Z,100253.16
2022-11-24T19:24:04.166Z,100257.72
2022-11-24T19:27:07.318Z,100266.53
2022-11-24T19:30:09.775Z,100268.28
2022-11-24T19:33:11.924Z,100275.66
2022-11-24T19:36:15.906Z,100282.44
2022-11-24T19:39:17.897Z,100276.59
2022-11-24T19:42:22.392Z,100285.22
2022-11-24T19:45:24.463Z,100291.66
2022-11-24T19:48:29.924Z,100289.97
2022-11-24T19:51:33.791Z,100294.72
2022-11-24T19:54:36.294Z,100297.50
2022-11-24T19:57:38.458Z,100306.44
2022-11-24T20:00:40.725Z,100305.44
2022-11-24T20:03:44.504Z,100322.34
2022-11-24T20:06:53.278Z,100312.16
2022-11-24T20:09:55.553Z,100320.03
2022-11-24T20:12:57.590Z,100326.81
2022-11-24T20:16:03.852Z,100321.87
2022-11-24T20:19:07.573Z,100327.06
2022-11-24T20:22:10.028Z,100338.16
2022-11-24T20:25:11.971Z,100338.16
2022-11-24T20:28:14.569Z,100343.19
2022-11-24T20:31:21.268Z,100349.22
2022-11-24T20:34:24.182Z,100350.22
2022-11-24T20:37:28.437Z,100362.09
2022-11-24T20:40:30.691Z,100359.19
2022-11-24T20:43:33.120Z,100366.50
2022-11-24T20:46:38.773Z,100369.13
2022-11-24T20:49:40.777Z,100368.81
2022-11-24T20:52:43.107Z,100371.06
2022-11-24T20:55:45.048Z,100373.53
2022-11-24T20:58:47.496Z,100374.53
2022-11-24T21:01:50.501Z,100381.34
2022-11-24T21:04:53.161Z,100377.56
2022-11-24T21:07:55.251Z,100379.09
2022-11-24T21:10:58.697Z,100375.09
2022-11-24T21:14:01.483Z,100383.81
2022-11-24T21:17:03.676Z,100376.47
2022-11-24T21:20:06.151Z,100384.66
2022-11-24T21:23:08.460Z,100390.19
2022-11-24T21:26:16.295Z,100393.44
2022-11-24T21:29:22.245Z,100392.34
2022-11-24T21:32:25.091Z,100398.22
2022-11-24T21:35:27.537Z,100401.44
2022-11-24T21:38:30.009Z,100399.37
2022-11-24T21:41:32.897Z,100386.56
2022-11-24T21:44:35.020Z,100393.31
2022-11-24T21:47:38.141Z,100399.78
2022-11-24T21:50:40.050Z,100397.25
2022-11-24T21:53:43.289Z,100396.16
2022-11-24T21:56:46.688Z,100402.03
2022-11-24T21:59:49.106Z,100398.31
2022-11-24T22:02:51.065Z,100399.72
2022-11-24T22:05:54.293Z,100404.34
2022-11-24T22:08:56.230Z,100397.97
2022-11-24T22:11:58.448Z,100408.19
2022-11-24T22:15:00.415Z,100414.78
2022-11-24T22:18:02.635Z,100416.78
2022-11-24T22:21:05.304Z,100421.19
2022-11-24T22:24:07.803Z,100416.56
2022-11-24T22:27:09.879Z,100421.22
2022-11-24T22:30:12.230Z,100427.56
2022-11-24T22:33:14.218Z,100433.59
2022-11-24T22:36:18.665Z,100442.31
2022-11-24T22:39:20.620Z,100445.19
2022-11-24T22:42:22.881Z,100452.50
2022-11-24T22:45:24.841Z,100455.13
2022-11-24T22:48:27.151Z,100457.50
2022-11-24T22:51:33.782Z,100455.78
2022-11-24T22:54:38.122Z,100461.09
2022-11-24T22:57:41.444Z,100461.38
2022-11-24T23:00:45.089Z,100460.69
2022-11-24T23:03:47.514Z,100475.47
2022-11-24T23:06:49.770Z,100470.97
2022-11-24T23:09:51.728Z,100467.47
2022-11-24T23:12:54.871Z,100475.53
2022-11-24T23:16:04.484Z,100479.34
2022-11-24T23:19:07.184Z,100487.06
2022-11-24T23:22:09.239Z,100476.00
2022-11-24T23:25:11.469Z,100474.94
2022-11-24T23:28:13.418Z,100477.03
2022-11-24T23:31:16.685Z,100480.44
2022-11-24T23:34:18.920Z,100478.28
2022-11-24T23:37:26.464Z,100480.38
2022-11-24T23:40:36.638Z,100495.59
2022-11-24T23:43:40.066Z,100505.31
2022-11-24T23:46:41.984Z,100503.69
2022-11-24T23:49:44.249Z,100497.78
2022-11-24T23:52:46.165Z,100495.53
2022-11-24T23:55:57.649Z,100492.56
2022-11-24T23:59:00.266Z,100494.66
